SLI2401 MMHO-MMCU
Flight info
| Callsign | SLI2401 |
|---|---|
| Flight time | 0h 46m |
| Altitude | 37000 |
| Route | HMO5B HMO UJ38 OTUPA DCT VIXER VIXER1B |
| Aircraft | E190/M-SDE3GILORVW/S |
Departure
| Time | 2026-04-24 07:56 |
|---|---|
| Airport | General Ignacio L. Pesqueira International Airport (MMHO) |
Arrival
| Time | 2026-04-24 08:43 |
|---|---|
| Airport | General Roberto Fierro Villalobos International Airport (MMCU) |
| Time | Latitude | Longitude | Altitude | Speed | Heading |
|---|---|---|---|---|---|
| 2026-04-24 07:36 | 29.09028 | -111.05308 | 642 ft | 0 kts | 149° |
| 2026-04-24 07:47 | 29.09029 | -111.05309 | 641 ft | 2 kts | 149° |
| 2026-04-24 07:47 | 29.09041 | -111.05317 | 641 ft | 2 kts | 148° |
| 2026-04-24 07:48 | 29.09054 | -111.05326 | 644 ft | 2 kts | 150° |
| 2026-04-24 07:48 | 29.09066 | -111.05335 | 643 ft | 2 kts | 145° |
| 2026-04-24 07:48 | 29.09075 | -111.05344 | 643 ft | 1 kts | 132° |
| 2026-04-24 07:48 | 29.09079 | -111.05350 | 642 ft | 1 kts | 105° |
| 2026-04-24 07:49 | 29.09080 | -111.05356 | 640 ft | 1 kts | 80° |
| 2026-04-24 07:49 | 29.09079 | -111.05362 | 640 ft | 1 kts | 66° |
| 2026-04-24 07:49 | 29.09077 | -111.05367 | 640 ft | 1 kts | 60° |
| 2026-04-24 07:49 | 29.09074 | -111.05372 | 642 ft | 1 kts | 58° |
| 2026-04-24 07:50 | 29.09073 | -111.05374 | 642 ft | 0 kts | 58° |
| 2026-04-24 07:51 | 29.09074 | -111.05372 | 642 ft | 2 kts | 58° |
| 2026-04-24 07:51 | 29.09089 | -111.05345 | 640 ft | 6 kts | 58° |
| 2026-04-24 07:51 | 29.09114 | -111.05298 | 641 ft | 8 kts | 58° |
| 2026-04-24 07:51 | 29.09148 | -111.05234 | 641 ft | 11 kts | 59° |
| 2026-04-24 07:52 | 29.09191 | -111.05152 | 643 ft | 13 kts | 59° |
| 2026-04-24 07:52 | 29.09243 | -111.05054 | 643 ft | 16 kts | 59° |
| 2026-04-24 07:52 | 29.09304 | -111.04941 | 642 ft | 18 kts | 58° |
| 2026-04-24 07:52 | 29.09345 | -111.04917 | 642 ft | 7 kts | 331° |
| 2026-04-24 07:53 | 29.09396 | -111.04973 | 640 ft | 13 kts | 315° |
| 2026-04-24 07:53 | 29.09461 | -111.05002 | 641 ft | 8 kts | 30° |
| 2026-04-24 07:53 | 29.09503 | -111.04932 | 639 ft | 13 kts | 58° |
| 2026-04-24 07:53 | 29.09553 | -111.04838 | 641 ft | 15 kts | 59° |
| 2026-04-24 07:54 | 29.09610 | -111.04727 | 640 ft | 18 kts | 59° |
| 2026-04-24 07:54 | 29.09680 | -111.04602 | 640 ft | 19 kts | 57° |
| 2026-04-24 07:54 | 29.09755 | -111.04468 | 642 ft | 21 kts | 61° |
| 2026-04-24 07:54 | 29.09828 | -111.04321 | 645 ft | 21 kts | 60° |
| 2026-04-24 07:55 | 29.09845 | -111.04247 | 647 ft | 1 kts | 19° |
| 2026-04-24 07:55 | 29.09850 | -111.04257 | 647 ft | 1 kts | 295° |
| 2026-04-24 07:55 | 29.09780 | -111.04411 | 642 ft | 58 kts | 240° |
| 2026-04-24 07:55 | 29.09436 | -111.05059 | 638 ft | 130 kts | 239° |
| 2026-04-24 07:56 | 29.08884 | -111.06114 | 811 ft | 175 kts | 240° |
| 2026-04-24 07:56 | 29.08237 | -111.07384 | 1532 ft | 196 kts | 239° |
| 2026-04-24 07:56 | 29.07485 | -111.08812 | 2340 ft | 211 kts | 239° |
| 2026-04-24 07:56 | 29.06715 | -111.10237 | 3494 ft | 212 kts | 238° |
| 2026-04-24 07:57 | 29.05853 | -111.11654 | 4220 ft | 230 kts | 234° |
| 2026-04-24 07:57 | 29.04872 | -111.13212 | 4918 ft | 238 kts | 236° |
| 2026-04-24 07:57 | 29.04015 | -111.14715 | 6454 ft | 216 kts | 237° |
| 2026-04-24 07:57 | 29.03203 | -111.16170 | 7533 ft | 219 kts | 237° |
| 2026-04-24 07:58 | 29.02378 | -111.17641 | 8612 ft | 221 kts | 237° |
| 2026-04-24 07:58 | 29.01542 | -111.19125 | 9732 ft | 223 kts | 237° |
| 2026-04-24 07:58 | 29.00818 | -111.20713 | 10642 ft | 235 kts | 251° |
| 2026-04-24 07:58 | 29.00673 | -111.22564 | 11704 ft | 233 kts | 275° |
| 2026-04-24 07:59 | 29.01054 | -111.24387 | 12696 ft | 240 kts | 290° |
| 2026-04-24 07:59 | 29.01920 | -111.26036 | 13732 ft | 247 kts | 307° |
| 2026-04-24 07:59 | 29.03245 | -111.27355 | 14612 ft | 258 kts | 325° |
| 2026-04-24 07:59 | 29.04932 | -111.28119 | 15670 ft | 266 kts | 343° |
| 2026-04-24 08:00 | 29.06801 | -111.28246 | 16710 ft | 276 kts | 0° |
| 2026-04-24 08:00 | 29.08699 | -111.27677 | 17419 ft | 296 kts | 20° |
| 2026-04-24 08:00 | 29.10327 | -111.26206 | 17862 ft | 306 kts | 47° |
| 2026-04-24 08:00 | 29.11358 | -111.24015 | 18328 ft | 329 kts | 73° |
| 2026-04-24 08:01 | 29.11619 | -111.21333 | 18702 ft | 351 kts | 92° |
| 2026-04-24 08:01 | 29.11357 | -111.18477 | 19078 ft | 372 kts | 99° |
| 2026-04-24 08:01 | 29.10949 | -111.15488 | 19594 ft | 387 kts | 99° |
| 2026-04-24 08:01 | 29.10555 | -111.12385 | 20149 ft | 402 kts | 99° |
| 2026-04-24 08:02 | 29.10159 | -111.09182 | 20765 ft | 412 kts | 99° |
| 2026-04-24 08:02 | 29.09717 | -111.05912 | 21457 ft | 420 kts | 100° |
| 2026-04-24 08:02 | 29.09397 | -111.02558 | 22156 ft | 428 kts | 95° |
| 2026-04-24 08:02 | 29.09197 | -110.99140 | 22860 ft | 435 kts | 94° |
| 2026-04-24 08:03 | 29.09005 | -110.95665 | 23524 ft | 441 kts | 94° |
| 2026-04-24 08:03 | 29.08810 | -110.92143 | 24071 ft | 447 kts | 94° |
| 2026-04-24 08:03 | 29.08610 | -110.88575 | 24622 ft | 452 kts | 94° |
| 2026-04-24 08:03 | 29.08407 | -110.84971 | 25156 ft | 457 kts | 94° |
| 2026-04-24 08:04 | 29.08198 | -110.81328 | 25705 ft | 462 kts | 94° |
| 2026-04-24 08:04 | 29.07988 | -110.77646 | 26244 ft | 467 kts | 94° |
| 2026-04-24 08:04 | 29.07773 | -110.73917 | 26761 ft | 472 kts | 95° |
| 2026-04-24 08:04 | 29.07555 | -110.70156 | 27266 ft | 477 kts | 95° |
| 2026-04-24 08:05 | 29.07335 | -110.66350 | 27746 ft | 482 kts | 95° |
| 2026-04-24 08:05 | 29.07110 | -110.62511 | 28221 ft | 486 kts | 95° |
| 2026-04-24 08:05 | 29.06884 | -110.58638 | 28704 ft | 490 kts | 95° |
| 2026-04-24 08:05 | 29.06654 | -110.54734 | 29137 ft | 494 kts | 95° |
| 2026-04-24 08:06 | 29.06422 | -110.50796 | 29551 ft | 499 kts | 95° |
| 2026-04-24 08:06 | 29.06186 | -110.46821 | 29963 ft | 503 kts | 95° |
| 2026-04-24 08:06 | 29.05949 | -110.42821 | 30298 ft | 507 kts | 95° |
| 2026-04-24 08:06 | 29.05707 | -110.38786 | 30626 ft | 511 kts | 95° |
| 2026-04-24 08:07 | 29.05463 | -110.34723 | 30957 ft | 515 kts | 95° |
| 2026-04-24 08:07 | 29.05215 | -110.30626 | 31297 ft | 518 kts | 95° |
| 2026-04-24 08:07 | 29.04964 | -110.26502 | 31634 ft | 522 kts | 95° |
| 2026-04-24 08:07 | 29.04710 | -110.22351 | 31955 ft | 526 kts | 95° |
| 2026-04-24 08:08 | 29.04454 | -110.18168 | 32285 ft | 529 kts | 95° |
| 2026-04-24 08:08 | 29.04195 | -110.13971 | 32706 ft | 530 kts | 95° |
| 2026-04-24 08:08 | 29.03934 | -110.09771 | 33131 ft | 530 kts | 95° |
| 2026-04-24 08:09 | 29.03412 | -110.01413 | 33912 ft | 532 kts | 95° |
| 2026-04-24 08:09 | 29.03147 | -109.97191 | 34252 ft | 532 kts | 95° |
| 2026-04-24 08:09 | 29.02879 | -109.92973 | 34611 ft | 532 kts | 96° |
| 2026-04-24 08:09 | 29.02611 | -109.88764 | 34953 ft | 531 kts | 96° |
| 2026-04-24 08:10 | 29.02340 | -109.84555 | 35298 ft | 531 kts | 96° |
| 2026-04-24 08:10 | 29.02069 | -109.80355 | 35650 ft | 530 kts | 96° |
| 2026-04-24 08:10 | 29.01796 | -109.76156 | 35988 ft | 530 kts | 97° |
| 2026-04-24 08:10 | 29.01520 | -109.71960 | 36374 ft | 528 kts | 96° |
| 2026-04-24 08:11 | 29.01245 | -109.67770 | 36685 ft | 529 kts | 96° |
| 2026-04-24 08:11 | 29.00970 | -109.63587 | 37045 ft | 523 kts | 97° |
| 2026-04-24 08:11 | 29.00693 | -109.59417 | 37084 ft | 531 kts | 97° |
| 2026-04-24 08:12 | 29.00122 | -109.50896 | 36935 ft | 545 kts | 97° |
| 2026-04-24 08:12 | 28.99538 | -109.42227 | 36960 ft | 551 kts | 96° |
| 2026-04-24 08:13 | 28.98942 | -109.33417 | 36991 ft | 561 kts | 96° |
| 2026-04-24 08:13 | 28.98340 | -109.24526 | 36986 ft | 563 kts | 96° |
| 2026-04-24 08:14 | 28.97715 | -109.15607 | 36977 ft | 564 kts | 96° |
| 2026-04-24 08:14 | 28.97090 | -109.06687 | 36980 ft | 563 kts | 96° |
| 2026-04-24 08:15 | 28.96460 | -108.97802 | 36993 ft | 561 kts | 97° |
| 2026-04-24 08:15 | 28.95826 | -108.88927 | 37019 ft | 562 kts | 96° |
| 2026-04-24 08:16 | 28.95185 | -108.80034 | 37014 ft | 561 kts | 96° |
| 2026-04-24 08:16 | 28.94545 | -108.71164 | 37028 ft | 560 kts | 97° |
| 2026-04-24 08:17 | 28.93892 | -108.62295 | 37023 ft | 561 kts | 96° |
| 2026-04-24 08:17 | 28.93235 | -108.53448 | 37031 ft | 558 kts | 96° |
| 2026-04-24 08:17 | 28.93187 | -108.49013 | 37028 ft | 561 kts | 82° |
| 2026-04-24 08:18 | 28.93948 | -108.44657 | 37083 ft | 559 kts | 72° |
| 2026-04-24 08:18 | 28.96102 | -108.36186 | 37023 ft | 559 kts | 72° |
| 2026-04-24 08:19 | 28.98157 | -108.27652 | 37036 ft | 557 kts | 73° |
| 2026-04-24 08:19 | 29.00161 | -108.19080 | 37046 ft | 559 kts | 73° |
| 2026-04-24 08:20 | 29.02154 | -108.10485 | 37033 ft | 559 kts | 73° |
| 2026-04-24 08:20 | 29.04139 | -108.01886 | 37047 ft | 560 kts | 73° |
| 2026-04-24 08:21 | 29.06119 | -107.93270 | 37034 ft | 561 kts | 73° |
| 2026-04-24 08:21 | 29.08094 | -107.84650 | 37035 ft | 559 kts | 73° |
| 2026-04-24 08:22 | 29.10034 | -107.76161 | 36872 ft | 547 kts | 73° |
| 2026-04-24 08:22 | 29.10981 | -107.71993 | 36422 ft | 535 kts | 73° |
| 2026-04-24 08:22 | 29.11909 | -107.67897 | 35694 ft | 531 kts | 73° |
| 2026-04-24 08:22 | 29.12834 | -107.63823 | 34995 ft | 527 kts | 72° |
| 2026-04-24 08:23 | 29.13752 | -107.59773 | 34251 ft | 525 kts | 72° |
| 2026-04-24 08:23 | 29.14660 | -107.55750 | 33542 ft | 520 kts | 72° |
| 2026-04-24 08:23 | 29.15558 | -107.51772 | 32870 ft | 513 kts | 72° |
| 2026-04-24 08:23 | 29.16450 | -107.47846 | 32189 ft | 507 kts | 72° |
| 2026-04-24 08:24 | 29.17330 | -107.43970 | 31496 ft | 501 kts | 72° |
| 2026-04-24 08:24 | 29.18200 | -107.40125 | 30860 ft | 495 kts | 73° |
| 2026-04-24 08:24 | 29.19056 | -107.36328 | 30181 ft | 491 kts | 73° |
| 2026-04-24 08:24 | 29.19902 | -107.32570 | 29514 ft | 484 kts | 73° |
| 2026-04-24 08:25 | 29.20731 | -107.28873 | 28885 ft | 478 kts | 73° |
| 2026-04-24 08:25 | 29.21556 | -107.25191 | 28273 ft | 479 kts | 73° |
| 2026-04-24 08:25 | 29.22389 | -107.21473 | 27606 ft | 485 kts | 73° |
| 2026-04-24 08:25 | 29.23106 | -107.17707 | 26908 ft | 485 kts | 83° |
| 2026-04-24 08:26 | 29.22898 | -107.13893 | 26342 ft | 477 kts | 105° |
| 2026-04-24 08:26 | 29.21652 | -107.10449 | 25757 ft | 463 kts | 127° |
| 2026-04-24 08:26 | 29.19602 | -107.07717 | 25202 ft | 448 kts | 142° |
| 2026-04-24 08:26 | 29.17392 | -107.05216 | 24570 ft | 447 kts | 140° |
| 2026-04-24 08:27 | 29.15298 | -107.02603 | 23986 ft | 444 kts | 137° |
| 2026-04-24 08:27 | 29.13258 | -106.99974 | 23345 ft | 439 kts | 136° |
| 2026-04-24 08:27 | 29.11296 | -106.97335 | 22813 ft | 432 kts | 135° |
| 2026-04-24 08:27 | 29.09378 | -106.94717 | 22234 ft | 427 kts | 135° |
| 2026-04-24 08:28 | 29.07487 | -106.92122 | 21668 ft | 422 kts | 134° |
| 2026-04-24 08:28 | 29.05625 | -106.89548 | 21121 ft | 418 kts | 134° |
| 2026-04-24 08:28 | 29.03788 | -106.87003 | 20576 ft | 414 kts | 134° |
| 2026-04-24 08:28 | 29.01966 | -106.84476 | 20024 ft | 409 kts | 134° |
| 2026-04-24 08:29 | 29.00170 | -106.81988 | 19487 ft | 403 kts | 133° |
| 2026-04-24 08:29 | 28.98397 | -106.79532 | 18956 ft | 398 kts | 133° |
| 2026-04-24 08:29 | 28.96645 | -106.77107 | 18425 ft | 393 kts | 133° |
| 2026-04-24 08:29 | 28.94918 | -106.74716 | 17987 ft | 386 kts | 133° |
| 2026-04-24 08:30 | 28.93221 | -106.72370 | 17615 ft | 382 kts | 133° |
| 2026-04-24 08:30 | 28.91534 | -106.70037 | 17330 ft | 381 kts | 133° |
| 2026-04-24 08:30 | 28.89845 | -106.67706 | 17026 ft | 380 kts | 133° |
| 2026-04-24 08:30 | 28.88164 | -106.65383 | 16715 ft | 378 kts | 132° |
| 2026-04-24 08:31 | 28.86516 | -106.63107 | 16408 ft | 376 kts | 132° |
| 2026-04-24 08:31 | 28.84859 | -106.60820 | 16105 ft | 372 kts | 132° |
| 2026-04-24 08:31 | 28.83215 | -106.58552 | 15807 ft | 370 kts | 132° |
| 2026-04-24 08:31 | 28.81581 | -106.56296 | 15502 ft | 368 kts | 132° |
| 2026-04-24 08:32 | 28.79955 | -106.54055 | 15216 ft | 366 kts | 131° |
| 2026-04-24 08:32 | 28.78337 | -106.51830 | 14925 ft | 363 kts | 132° |
| 2026-04-24 08:32 | 28.76733 | -106.49623 | 14640 ft | 360 kts | 131° |
| 2026-04-24 08:32 | 28.75143 | -106.47436 | 14343 ft | 357 kts | 131° |
| 2026-04-24 08:33 | 28.74073 | -106.45967 | 14150 ft | 355 kts | 131° |
| 2026-04-24 08:33 | 28.72507 | -106.43811 | 13849 ft | 349 kts | 131° |
| 2026-04-24 08:33 | 28.70993 | -106.41732 | 13561 ft | 333 kts | 131° |
| 2026-04-24 08:33 | 28.69550 | -106.39743 | 13320 ft | 319 kts | 131° |
| 2026-04-24 08:34 | 28.68156 | -106.37827 | 13070 ft | 310 kts | 132° |
| 2026-04-24 08:34 | 28.66781 | -106.35945 | 12813 ft | 310 kts | 132° |
| 2026-04-24 08:34 | 28.65404 | -106.34060 | 12555 ft | 310 kts | 132° |
| 2026-04-24 08:34 | 28.64024 | -106.32177 | 12302 ft | 309 kts | 132° |
| 2026-04-24 08:35 | 28.62649 | -106.30292 | 12069 ft | 310 kts | 132° |
| 2026-04-24 08:35 | 28.61296 | -106.28372 | 11699 ft | 312 kts | 126° |
| 2026-04-24 08:35 | 28.60300 | -106.26182 | 11365 ft | 311 kts | 116° |
| 2026-04-24 08:35 | 28.59480 | -106.23909 | 10927 ft | 310 kts | 114° |
| 2026-04-24 08:36 | 28.58682 | -106.21670 | 10510 ft | 308 kts | 114° |
| 2026-04-24 08:36 | 28.57870 | -106.19439 | 10087 ft | 304 kts | 115° |
| 2026-04-24 08:36 | 28.57060 | -106.17236 | 9671 ft | 299 kts | 115° |
| 2026-04-24 08:36 | 28.56261 | -106.15069 | 9296 ft | 295 kts | 113° |
| 2026-04-24 08:37 | 28.55775 | -106.12803 | 8932 ft | 296 kts | 100° |
| 2026-04-24 08:37 | 28.55505 | -106.10504 | 8481 ft | 288 kts | 99° |
| 2026-04-24 08:37 | 28.55222 | -106.08320 | 8096 ft | 271 kts | 101° |
| 2026-04-24 08:37 | 28.54923 | -106.06261 | 7757 ft | 257 kts | 101° |
| 2026-04-24 08:38 | 28.54611 | -106.04259 | 7300 ft | 257 kts | 101° |
| 2026-04-24 08:38 | 28.54308 | -106.02321 | 7085 ft | 242 kts | 99° |
| 2026-04-24 08:38 | 28.54557 | -106.00460 | 6652 ft | 238 kts | 60° |
| 2026-04-24 08:38 | 28.55745 | -105.99326 | 6357 ft | 216 kts | 15° |
| 2026-04-24 08:39 | 28.57152 | -105.99127 | 6257 ft | 191 kts | 357° |
| 2026-04-24 08:39 | 28.58417 | -105.98984 | 6216 ft | 178 kts | 6° |
| 2026-04-24 08:39 | 28.59593 | -105.98674 | 6218 ft | 170 kts | 7° |
| 2026-04-24 08:39 | 28.60719 | -105.98443 | 6080 ft | 156 kts | 4° |
| 2026-04-24 08:40 | 28.61754 | -105.98229 | 5895 ft | 145 kts | 5° |
| 2026-04-24 08:40 | 28.62730 | -105.98006 | 5720 ft | 142 kts | 8° |
| 2026-04-24 08:40 | 28.63692 | -105.97798 | 5555 ft | 140 kts | 6° |
| 2026-04-24 08:40 | 28.64649 | -105.97590 | 5376 ft | 138 kts | 6° |
| 2026-04-24 08:41 | 28.65586 | -105.97367 | 5213 ft | 139 kts | 7° |
| 2026-04-24 08:41 | 28.66532 | -105.97162 | 5030 ft | 139 kts | 8° |
| 2026-04-24 08:41 | 28.67484 | -105.96973 | 4825 ft | 136 kts | 7° |
| 2026-04-24 08:41 | 28.68412 | -105.96757 | 4657 ft | 135 kts | 8° |
| 2026-04-24 08:42 | 28.69339 | -105.96561 | 4470 ft | 135 kts | 7° |
| 2026-04-24 08:42 | 28.70150 | -105.96385 | 4436 ft | 102 kts | 12° |
| 2026-04-24 08:42 | 28.70683 | -105.96273 | 4438 ft | 58 kts | 13° |
| 2026-04-24 08:42 | 28.71058 | -105.96184 | 4439 ft | 52 kts | 10° |
| 2026-04-24 08:43 | 28.71265 | -105.96146 | 4437 ft | 16 kts | 358° |
| 2026-04-24 08:43 | 28.71317 | -105.96248 | 4436 ft | 13 kts | 281° |
| 2026-04-24 08:43 | 28.71325 | -105.96322 | 4436 ft | 10 kts | 259° |
| 2026-04-24 08:43 | 28.71284 | -105.96356 | 4436 ft | 9 kts | 197° |
| 2026-04-24 08:44 | 28.71207 | -105.96373 | 4437 ft | 13 kts | 191° |
| 2026-04-24 08:44 | 28.71117 | -105.96393 | 4437 ft | 14 kts | 191° |
| 2026-04-24 08:44 | 28.71017 | -105.96416 | 4437 ft | 15 kts | 191° |
| 2026-04-24 08:44 | 28.70906 | -105.96440 | 4437 ft | 17 kts | 190° |
| 2026-04-24 08:45 | 28.70782 | -105.96467 | 4435 ft | 19 kts | 191° |
| 2026-04-24 08:45 | 28.70645 | -105.96499 | 4435 ft | 21 kts | 192° |
| 2026-04-24 08:45 | 28.70501 | -105.96531 | 4436 ft | 22 kts | 193° |
| 2026-04-24 08:45 | 28.70444 | -105.96631 | 4435 ft | 12 kts | 263° |
| 2026-04-24 08:46 | 28.70434 | -105.96694 | 4434 ft | 9 kts | 261° |
| 2026-04-24 08:46 | 28.70418 | -105.96769 | 4434 ft | 9 kts | 232° |
| 2026-04-24 08:46 | 28.70375 | -105.96799 | 4434 ft | 6 kts | 246° |
| 2026-04-24 08:46 | 28.70379 | -105.96837 | 4434 ft | 0 kts | 280° |
| 2026-04-24 08:47 | 28.70379 | -105.96838 | 4434 ft | 0 kts | 280° |